createdAt,value
2023-04-19T00:03:40.162Z,0.30
2023-04-19T00:08:42.480Z,0.40
2023-04-19T00:13:43.995Z,0.50
2023-04-19T00:18:46.820Z,0.32
2023-04-19T00:23:48.330Z,0.40
2023-04-19T00:28:49.801Z,0.30
2023-04-19T00:33:51.352Z,0.50
2023-04-19T00:38:52.873Z,0.30
2023-04-19T00:43:54.388Z,0.40
2023-04-19T00:48:55.972Z,0.40
2023-04-19T00:53:57.925Z,0.30
2023-04-19T00:58:59.775Z,0.38
2023-04-19T01:04:01.974Z,0.60
2023-04-19T01:09:03.917Z,0.40
2023-04-19T01:14:05.422Z,0.20
2023-04-19T01:19:06.976Z,0.30
2023-04-19T01:24:08.503Z,0.32
2023-04-19T01:29:09.999Z,0.20
2023-04-19T01:34:11.452Z,0.43
2023-04-19T01:39:12.934Z,0.35
2023-04-19T01:44:14.563Z,0.40
2023-04-19T01:49:17.056Z,0.38
2023-04-19T01:54:18.543Z,0.30
2023-04-19T01:59:20.093Z,0.30
2023-04-19T02:04:24.316Z,0.40
2023-04-19T02:09:25.791Z,0.30
2023-04-19T02:14:27.268Z,0.50
2023-04-19T02:19:28.779Z,0.32
2023-04-19T02:24:30.642Z,0.60
2023-04-19T02:29:32.716Z,0.40
2023-04-19T02:34:34.696Z,0.47
2023-04-19T02:39:36.188Z,0.20
2023-04-19T02:44:37.688Z,0.40
2023-04-19T02:49:41.579Z,0.60
2023-04-19T02:54:43.076Z,0.30
2023-04-19T02:59:44.608Z,0.30
2023-04-19T03:04:47.317Z,0.63
2023-04-19T03:09:48.839Z,0.52
2023-04-19T03:14:50.312Z,0.35
2023-04-19T03:19:52.555Z,0.25
2023-04-19T03:24:54.029Z,0.40
2023-04-19T03:29:56.033Z,0.40
2023-04-19T03:34:57.650Z,0.50
2023-04-19T03:39:59.118Z,0.40
2023-04-19T03:45:00.783Z,0.50
2023-04-19T03:50:02.446Z,0.52
2023-04-19T03:55:04.143Z,0.43
2023-04-19T04:00:08.921Z,0.30
2023-04-19T04:05:10.779Z,0.40
2023-04-19T04:10:12.333Z,0.40
2023-04-19T04:15:13.804Z,0.77
2023-04-19T04:20:16.625Z,0.50
2023-04-19T04:25:18.692Z,0.32
2023-04-19T04:30:21.047Z,0.45
2023-04-19T04:35:22.529Z,0.45
2023-04-19T04:40:24.070Z,0.35
2023-04-19T04:45:25.697Z,0.32
2023-04-19T04:50:27.293Z,0.35
2023-04-19T04:55:28.795Z,0.52
2023-04-19T05:00:30.564Z,0.43
2023-04-19T05:05:32.113Z,0.60
2023-04-19T05:10:33.586Z,0.32
2023-04-19T05:15:35.035Z,0.63
2023-04-19T05:20:36.664Z,0.40
2023-04-19T05:25:38.203Z,0.63
2023-04-19T05:30:39.812Z,0.55
2023-04-19T05:35:41.357Z,0.30
2023-04-19T05:40:42.856Z,0.50
2023-04-19T05:45:44.469Z,0.40
2023-04-19T05:50:46.047Z,0.50
2023-04-19T05:55:49.427Z,0.50
2023-04-19T06:00:51.741Z,0.73
2023-04-19T06:05:53.269Z,0.38
2023-04-19T06:11:00.190Z,0.73
2023-04-19T06:16:07.961Z,0.70
2023-04-19T06:21:09.489Z,0.43
2023-04-19T06:26:11.006Z,0.65
2023-04-19T06:31:12.532Z,0.55
2023-04-19T06:36:14.124Z,0.90
2023-04-19T06:41:15.818Z,0.40
2023-04-19T06:46:17.715Z,0.70
2023-04-19T06:51:19.405Z,0.90
2023-04-19T06:56:39.105Z,0.70
2023-04-19T07:01:41.353Z,1.38
2023-04-19T07:06:42.942Z,0.95
2023-04-19T07:11:44.435Z,0.57
2023-04-19T07:16:46.368Z,0.65
2023-04-19T07:21:48.267Z,0.45
2023-04-19T07:26:49.764Z,0.40
2023-04-19T07:31:51.356Z,0.50
2023-04-19T07:36:52.895Z,0.60
2023-04-19T07:41:54.363Z,0.82
2023-04-19T07:46:56.191Z,0.73
2023-04-19T07:51:57.829Z,0.57
2023-04-19T07:56:59.534Z,0.70
2023-04-19T08:02:01.349Z,0.60
2023-04-19T08:07:04.244Z,0.63
2023-04-19T08:12:05.856Z,0.70
2023-04-19T08:17:23.817Z,0.75
2023-04-19T08:22:27.389Z,0.50
2023-04-19T08:27:28.858Z,0.60
2023-04-19T08:32:30.414Z,0.55
2023-04-19T08:37:31.936Z,0.40
2023-04-19T08:42:36.894Z,0.52
2023-04-19T08:52:54.776Z,0.50
2023-04-19T08:57:58.954Z,0.30
2023-04-19T09:03:02.395Z,0.60
2023-04-19T09:08:21.103Z,0.40
2023-04-19T09:13:23.112Z,0.40
2023-04-19T09:18:28.837Z,0.50
2023-04-19T09:23:32.080Z,0.55
2023-04-19T09:28:33.575Z,0.55
2023-04-19T09:33:36.848Z,0.40
2023-04-19T09:38:48.925Z,0.60
2023-04-19T09:48:55.217Z,0.30
2023-04-19T09:53:56.755Z,0.40
2023-04-19T09:59:04.957Z,0.50
2023-04-19T10:04:33.403Z,0.40
2023-04-19T10:09:53.006Z,0.40
2023-04-19T10:14:58.792Z,0.85
2023-04-19T10:20:06.821Z,0.50
2023-04-19T10:25:08.654Z,0.40
2023-04-19T10:30:18.069Z,0.38
2023-04-19T10:35:23.869Z,0.55
2023-04-19T10:40:52.026Z,0.40
2023-04-19T10:45:53.904Z,0.30
2023-04-19T10:50:58.911Z,0.60
2023-04-19T10:56:00.628Z,0.47
2023-04-19T11:01:20.851Z,0.60
2023-04-19T11:06:27.163Z,0.40
2023-04-19T11:11:28.789Z,0.50
2023-04-19T11:16:42.488Z,0.43
2023-04-19T11:21:47.303Z,0.32
2023-04-19T11:26:48.872Z,0.50
2023-04-19T11:31:50.500Z,0.50
2023-04-19T11:36:52.657Z,0.30
2023-04-19T11:41:54.200Z,0.45
2023-04-19T11:47:00.087Z,0.30
2023-04-19T11:52:05.347Z,0.45
2023-04-19T11:57:07.831Z,0.40
2023-04-19T12:02:10.419Z,0.45
2023-04-19T12:07:11.976Z,0.52
2023-04-19T12:12:13.449Z,0.30
2023-04-19T12:17:15.926Z,0.50
2023-04-19T12:22:22.900Z,0.50
2023-04-19T12:27:25.777Z,0.20
2023-04-19T12:32:27.548Z,0.28
2023-04-19T12:37:29.109Z,0.47
2023-04-19T12:42:30.653Z,0.47
2023-04-19T12:47:32.448Z,0.45
2023-04-19T12:52:34.267Z,0.40
2023-04-19T12:57:36.155Z,0.30
2023-04-19T13:02:38.075Z,0.63
2023-04-19T13:07:40.051Z,0.40
2023-04-19T13:12:41.641Z,0.68
2023-04-19T13:17:43.187Z,0.35
2023-04-19T13:22:44.789Z,0.40
2023-04-19T13:27:47.151Z,0.50
2023-04-19T13:32:48.736Z,0.57
2023-04-19T13:37:51.320Z,0.47
2023-04-19T13:42:54.390Z,0.40
2023-04-19T13:47:56.031Z,0.57
2023-04-19T13:52:57.552Z,0.40
2023-04-19T13:57:59.530Z,1.10
2023-04-19T14:03:01.378Z,0.60
2023-04-19T14:08:03.049Z,0.45
2023-04-19T14:13:05.394Z,0.50
2023-04-19T14:18:07.094Z,0.65
2023-04-19T14:23:08.614Z,0.80
2023-04-19T14:28:12.651Z,0.80
2023-04-19T14:33:14.423Z,0.52
2023-04-19T14:38:16.095Z,0.50
2023-04-19T14:43:17.967Z,0.32
2023-04-19T14:48:21.907Z,0.43
2023-04-19T14:53:23.885Z,0.50
2023-04-19T14:58:25.533Z,1.13
2023-04-19T15:03:27.374Z,0.60
2023-04-19T15:08:30.765Z,0.47
2023-04-19T15:13:33.936Z,0.60
2023-04-19T15:18:35.701Z,0.50
2023-04-19T15:23:37.558Z,0.90
2023-04-19T15:28:39.274Z,0.50
2023-04-19T15:33:40.845Z,0.30
2023-04-19T15:38:43.953Z,0.30
2023-04-19T15:43:45.669Z,0.55
2023-04-19T15:48:48.429Z,0.60
2023-04-19T15:53:50.258Z,0.40
2023-04-19T15:58:51.809Z,0.43
2023-04-19T16:03:53.603Z,0.50
2023-04-19T16:08:55.282Z,0.52
2023-04-19T16:13:56.781Z,0.50
2023-04-19T16:18:58.247Z,0.70
2023-04-19T16:24:00.959Z,0.55
2023-04-19T16:29:02.460Z,0.50
2023-04-19T16:34:03.940Z,0.45
2023-04-19T16:39:05.424Z,0.52
2023-04-19T16:44:06.925Z,0.40
2023-04-19T16:49:08.857Z,0.60
2023-04-19T16:54:10.397Z,0.60
2023-04-19T16:59:11.881Z,0.57
2023-04-19T17:04:13.717Z,0.60
2023-04-19T17:09:15.720Z,0.50
2023-04-19T17:14:17.681Z,0.60
2023-04-19T17:19:19.394Z,0.47
2023-04-19T17:24:20.992Z,0.50
2023-04-19T17:29:22.463Z,0.32
2023-04-19T17:34:24.001Z,0.70
2023-04-19T17:39:27.918Z,0.60
2023-04-19T17:44:29.428Z,0.40
2023-04-19T17:49:30.981Z,0.47
2023-04-19T17:54:32.456Z,0.50
2023-04-19T17:59:33.948Z,0.80
2023-04-19T18:04:35.646Z,0.50
2023-04-19T18:09:37.179Z,0.47
2023-04-19T18:14:38.658Z,0.60
2023-04-19T18:19:40.169Z,0.40
2023-04-19T18:24:43.776Z,0.70
2023-04-19T18:29:45.384Z,0.40
2023-04-19T18:34:47.475Z,0.70
2023-04-19T18:39:49.056Z,0.60
2023-04-19T18:44:54.349Z,0.50
2023-04-19T18:55:00.850Z,0.60
2023-04-19T19:00:04.938Z,0.40
2023-04-19T19:05:09.534Z,0.63
2023-04-19T19:15:15.933Z,1.27
2023-04-19T19:20:17.982Z,1.25
2023-04-19T19:25:19.572Z,1.33
2023-04-19T19:30:25.586Z,1.55
2023-04-19T19:35:27.138Z,1.15
2023-04-19T19:40:31.043Z,2.10
2023-04-19T19:45:34.060Z,2.85
2023-04-19T19:55:40.262Z,3.55
2023-04-19T20:00:47.125Z,3.35
2023-04-19T20:05:49.639Z,2.67
2023-04-19T20:10:51.194Z,2.05
2023-04-19T20:15:53.458Z,1.65
2023-04-19T20:20:54.969Z,1.40
2023-04-19T20:25:57.533Z,1.27
2023-04-19T20:30:59.023Z,1.17
2023-04-19T20:36:00.625Z,0.73
2023-04-19T20:41:02.226Z,1.80
2023-04-19T20:46:04.044Z,3.55
2023-04-19T20:51:05.783Z,4.05
2023-04-19T20:56:07.332Z,3.72
2023-04-19T21:01:09.064Z,2.20
2023-04-19T21:06:10.688Z,1.20
2023-04-19T21:11:12.239Z,1.23
2023-04-19T21:16:13.751Z,0.90
2023-04-19T21:21:15.268Z,1.20
2023-04-19T21:26:16.776Z,0.88
2023-04-19T21:31:18.325Z,0.88
2023-04-19T21:36:19.817Z,0.77
2023-04-19T21:41:21.584Z,1.13
2023-04-19T21:46:23.514Z,1.27
2023-04-19T21:51:25.359Z,0.70
2023-04-19T21:56:26.854Z,0.88
2023-04-19T22:01:28.403Z,1.20
2023-04-19T22:06:29.918Z,0.90
2023-04-19T22:11:31.484Z,0.93
2023-04-19T22:16:33.028Z,1.17
2023-04-19T22:21:34.620Z,1.33
2023-04-19T22:26:36.302Z,1.00
2023-04-19T22:31:37.826Z,0.82
2023-04-19T22:36:39.321Z,1.00
2023-04-19T22:41:40.820Z,0.75
2023-04-19T22:46:42.359Z,0.90
2023-04-19T22:51:45.195Z,1.10
2023-04-19T22:56:46.787Z,0.68
2023-04-19T23:01:48.311Z,0.80
2023-04-19T23:06:49.813Z,1.08
2023-04-19T23:11:51.462Z,0.80
2023-04-19T23:16:54.790Z,0.75
2023-04-19T23:21:56.319Z,0.70
2023-04-19T23:26:57.865Z,0.70
2023-04-19T23:32:00.438Z,0.80
2023-04-19T23:37:01.975Z,0.60
2023-04-19T23:42:03.550Z,0.98
2023-04-19T23:47:05.355Z,0.60
2023-04-19T23:52:07.004Z,1.30
2023-04-19T23:57:08.555Z,0.70
